sensor_id;sensor_type;location;lat;lon;timestamp;temperature;humidity
6641;DHT22;3356;49.360;8.266;2022-11-04T00:00:23;11.50;99.90
6641;DHT22;3356;49.360;8.266;2022-11-04T00:02:24;11.50;99.90
6641;DHT22;3356;49.360;8.266;2022-11-04T00:04:27;11.50;99.90
6641;DHT22;3356;49.360;8.266;2022-11-04T00:06:28;11.50;99.90
6641;DHT22;3356;49.360;8.266;2022-11-04T00:08:29;11.60;99.90
6641;DHT22;3356;49.360;8.266;2022-11-04T00:10:30;11.50;99.90
6641;DHT22;3356;49.360;8.266;2022-11-04T00:12:51;11.50;99.90
6641;DHT22;3356;49.360;8.266;2022-11-04T00:14:53;11.50;99.90
6641;DHT22;3356;49.360;8.266;2022-11-04T00:16:54;9.80;99.90
6641;DHT22;3356;49.360;8.266;2022-11-04T00:19:14;11.50;99.90
6641;DHT22;3356;49.360;8.266;2022-11-04T00:21:15;11.50;99.90
6641;DHT22;3356;49.360;8.266;2022-11-04T00:23:34;11.60;99.90
6641;DHT22;3356;49.360;8.266;2022-11-04T00:25:54;11.50;99.90
6641;DHT22;3356;49.360;8.266;2022-11-04T00:28:16;11.50;99.90
6641;DHT22;3356;49.360;8.266;2022-11-04T00:30:36;11.50;99.90
6641;DHT22;3356;49.360;8.266;2022-11-04T00:32:38;11.50;99.90
6641;DHT22;3356;49.360;8.266;2022-11-04T00:34:57;11.50;99.90
6641;DHT22;3356;49.360;8.266;2022-11-04T00:36:59;11.50;99.90
6641;DHT22;3356;49.360;8.266;2022-11-04T00:39:00;11.60;99.90
6641;DHT22;3356;49.360;8.266;2022-11-04T00:41:01;11.50;99.90
6641;DHT22;3356;49.360;8.266;2022-11-04T00:43:02;11.50;99.90
6641;DHT22;3356;49.360;8.266;2022-11-04T00:45:04;11.60;99.90
6641;DHT22;3356;49.360;8.266;2022-11-04T00:47:05;11.50;99.90
6641;DHT22;3356;49.360;8.266;2022-11-04T00:49:06;11.50;99.90
6641;DHT22;3356;49.360;8.266;2022-11-04T00:51:07;11.50;99.90
6641;DHT22;3356;49.360;8.266;2022-11-04T00:53:08;11.40;99.90
6641;DHT22;3356;49.360;8.266;2022-11-04T00:55:09;11.40;99.90
6641;DHT22;3356;49.360;8.266;2022-11-04T00:57:12;11.40;99.90
6641;DHT22;3356;49.360;8.266;2022-11-04T00:59:13;11.40;99.90
6641;DHT22;3356;49.360;8.266;2022-11-04T01:01:16;11.40;99.90
6641;DHT22;3356;49.360;8.266;2022-11-04T01:03:17;11.40;99.90
6641;DHT22;3356;49.360;8.266;2022-11-04T01:05:18;11.40;99.90
6641;DHT22;3356;49.360;8.266;2022-11-04T01:07:20;11.40;99.90
6641;DHT22;3356;49.360;8.266;2022-11-04T01:09:21;11.40;99.90
6641;DHT22;3356;49.360;8.266;2022-11-04T01:11:22;11.40;99.90
6641;DHT22;3356;49.360;8.266;2022-11-04T01:13:23;11.30;99.90
6641;DHT22;3356;49.360;8.266;2022-11-04T01:15:24;11.30;99.90
6641;DHT22;3356;49.360;8.266;2022-11-04T01:17:25;11.20;99.90
6641;DHT22;3356;49.360;8.266;2022-11-04T01:19:26;11.20;99.90
6641;DHT22;3356;49.360;8.266;2022-11-04T01:21:27;11.20;99.90
6641;DHT22;3356;49.360;8.266;2022-11-04T01:23:28;11.30;99.90
6641;DHT22;3356;49.360;8.266;2022-11-04T01:25:30;11.30;99.90
6641;DHT22;3356;49.360;8.266;2022-11-04T01:27:31;11.30;99.90
6641;DHT22;3356;49.360;8.266;2022-11-04T01:29:32;11.30;99.90
6641;DHT22;3356;49.360;8.266;2022-11-04T01:31:33;11.30;99.90
6641;DHT22;3356;49.360;8.266;2022-11-04T01:33:35;11.30;99.90
6641;DHT22;3356;49.360;8.266;2022-11-04T01:35:36;11.30;99.90
6641;DHT22;3356;49.360;8.266;2022-11-04T01:37:38;11.30;99.90
6641;DHT22;3356;49.360;8.266;2022-11-04T01:39:39;11.30;99.90
6641;DHT22;3356;49.360;8.266;2022-11-04T01:41:40;11.40;99.90
6641;DHT22;3356;49.360;8.266;2022-11-04T01:43:50;11.30;99.90
6641;DHT22;3356;49.360;8.266;2022-11-04T01:45:55;11.30;99.90
6641;DHT22;3356;49.360;8.266;2022-11-04T01:48:06;11.30;99.90
6641;DHT22;3356;49.360;8.266;2022-11-04T01:50:25;11.30;99.90
6641;DHT22;3356;49.360;8.266;2022-11-04T01:52:44;12.60;99.90
6641;DHT22;3356;49.360;8.266;2022-11-04T01:54:47;11.40;99.90
6641;DHT22;3356;49.360;8.266;2022-11-04T01:56:50;11.40;99.90
6641;DHT22;3356;49.360;8.266;2022-11-04T01:58:52;11.40;99.90
6641;DHT22;3356;49.360;8.266;2022-11-04T02:00:55;11.50;99.90
6641;DHT22;3356;49.360;8.266;2022-11-04T02:03:00;11.40;99.90
6641;DHT22;3356;49.360;8.266;2022-11-04T02:05:02;11.40;99.90
6641;DHT22;3356;49.360;8.266;2022-11-04T02:07:07;11.50;99.90
6641;DHT22;3356;49.360;8.266;2022-11-04T02:09:09;11.40;99.90
6641;DHT22;3356;49.360;8.266;2022-11-04T02:11:11;11.40;99.90
6641;DHT22;3356;49.360;8.266;2022-11-04T02:13:34;11.50;99.90
6641;DHT22;3356;49.360;8.266;2022-11-04T02:30:16;11.20;99.90
6641;DHT22;3356;49.360;8.266;2022-11-04T02:32:38;11.20;99.90
6641;DHT22;3356;49.360;8.266;2022-11-04T02:37:20;11.20;99.90
6641;DHT22;3356;49.360;8.266;2022-11-04T02:41:46;11.20;99.90
6641;DHT22;3356;49.360;8.266;2022-11-04T02:46:52;11.10;99.90
6641;DHT22;3356;49.360;8.266;2022-11-04T02:48:44;11.00;99.90
6641;DHT22;3356;49.360;8.266;2022-11-04T02:50:58;11.00;99.90
6641;DHT22;3356;49.360;8.266;2022-11-04T02:53:10;11.00;99.90
6641;DHT22;3356;49.360;8.266;2022-11-04T02:55:28;11.00;99.90
6641;DHT22;3356;49.360;8.266;2022-11-04T02:57:34;11.00;99.90
6641;DHT22;3356;49.360;8.266;2022-11-04T03:00:03;11.00;99.90
6641;DHT22;3356;49.360;8.266;2022-11-04T03:02:08;11.00;99.90
6641;DHT22;3356;49.360;8.266;2022-11-04T03:04:14;11.00;99.90
6641;DHT22;3356;49.360;8.266;2022-11-04T03:06:19;11.00;99.90
6641;DHT22;3356;49.360;8.266;2022-11-04T03:08:33;11.00;99.90
6641;DHT22;3356;49.360;8.266;2022-11-04T03:10:38;11.00;99.90
6641;DHT22;3356;49.360;8.266;2022-11-04T03:13:08;11.00;99.90
6641;DHT22;3356;49.360;8.266;2022-11-04T03:15:12;11.00;99.90
6641;DHT22;3356;49.360;8.266;2022-11-04T03:17:45;11.00;99.90
6641;DHT22;3356;49.360;8.266;2022-11-04T03:19:53;11.00;99.90
6641;DHT22;3356;49.360;8.266;2022-11-04T03:24:01;11.00;99.90
6641;DHT22;3356;49.360;8.266;2022-11-04T03:26:21;11.00;99.90
6641;DHT22;3356;49.360;8.266;2022-11-04T03:28:26;11.00;99.90
6641;DHT22;3356;49.360;8.266;2022-11-04T03:30:42;11.00;99.90
6641;DHT22;3356;49.360;8.266;2022-11-04T03:33:15;11.00;99.90
6641;DHT22;3356;49.360;8.266;2022-11-04T03:35:18;10.90;99.90
6641;DHT22;3356;49.360;8.266;2022-11-04T03:37:20;10.90;99.90
6641;DHT22;3356;49.360;8.266;2022-11-04T03:39:21;10.80;99.90
6641;DHT22;3356;49.360;8.266;2022-11-04T03:41:31;10.80;99.90
6641;DHT22;3356;49.360;8.266;2022-11-04T03:43:35;10.80;99.90
6641;DHT22;3356;49.360;8.266;2022-11-04T03:45:38;10.80;99.90
6641;DHT22;3356;49.360;8.266;2022-11-04T03:47:39;10.80;99.90
6641;DHT22;3356;49.360;8.266;2022-11-04T03:49:41;10.80;99.90
6641;DHT22;3356;49.360;8.266;2022-11-04T03:51:42;10.70;99.90
6641;DHT22;3356;49.360;8.266;2022-11-04T03:53:43;10.70;99.90
6641;DHT22;3356;49.360;8.266;2022-11-04T03:56:13;10.60;99.90
6641;DHT22;3356;49.360;8.266;2022-11-04T03:59:23;10.60;99.90
6641;DHT22;3356;49.360;8.266;2022-11-04T04:01:29;10.50;99.90
6641;DHT22;3356;49.360;8.266;2022-11-04T04:03:41;10.50;99.90
6641;DHT22;3356;49.360;8.266;2022-11-04T04:13:01;10.40;99.90
6641;DHT22;3356;49.360;8.266;2022-11-04T04:15:19;10.40;99.90
6641;DHT22;3356;49.360;8.266;2022-11-04T04:17:38;10.40;99.90
6641;DHT22;3356;49.360;8.266;2022-11-04T04:19:50;10.40;99.90
6641;DHT22;3356;49.360;8.266;2022-11-04T04:21:57;10.40;99.90
6641;DHT22;3356;49.360;8.266;2022-11-04T04:24:02;10.40;99.90
6641;DHT22;3356;49.360;8.266;2022-11-04T04:26:24;10.40;99.90
6641;DHT22;3356;49.360;8.266;2022-11-04T04:28:45;10.40;99.90
6641;DHT22;3356;49.360;8.266;2022-11-04T04:30:46;10.40;99.90
6641;DHT22;3356;49.360;8.266;2022-11-04T04:32:59;10.40;99.90
6641;DHT22;3356;49.360;8.266;2022-11-04T04:35:01;10.30;99.90
6641;DHT22;3356;49.360;8.266;2022-11-04T04:37:22;10.30;99.90
6641;DHT22;3356;49.360;8.266;2022-11-04T04:39:52;10.30;99.90
6641;DHT22;3356;49.360;8.266;2022-11-04T04:42:10;10.30;99.90
6641;DHT22;3356;49.360;8.266;2022-11-04T04:44:30;10.30;99.90
6641;DHT22;3356;49.360;8.266;2022-11-04T04:46:51;10.30;99.90
6641;DHT22;3356;49.360;8.266;2022-11-04T04:48:53;10.30;99.90
6641;DHT22;3356;49.360;8.266;2022-11-04T04:50:56;10.30;99.90
6641;DHT22;3356;49.360;8.266;2022-11-04T04:53:02;10.20;99.90
6641;DHT22;3356;49.360;8.266;2022-11-04T04:55:04;10.20;99.90
6641;DHT22;3356;49.360;8.266;2022-11-04T04:57:06;10.20;99.90
6641;DHT22;3356;49.360;8.266;2022-11-04T04:59:07;10.20;99.90
6641;DHT22;3356;49.360;8.266;2022-11-04T05:01:08;10.20;99.90
6641;DHT22;3356;49.360;8.266;2022-11-04T05:03:09;10.20;99.90
6641;DHT22;3356;49.360;8.266;2022-11-04T05:05:11;10.20;99.90
6641;DHT22;3356;49.360;8.266;2022-11-04T05:07:13;10.10;99.90
6641;DHT22;3356;49.360;8.266;2022-11-04T05:09:14;10.10;99.90
6641;DHT22;3356;49.360;8.266;2022-11-04T05:11:15;10.10;99.90
6641;DHT22;3356;49.360;8.266;2022-11-04T05:13:16;10.10;99.90
6641;DHT22;3356;49.360;8.266;2022-11-04T05:15:27;10.10;99.90
6641;DHT22;3356;49.360;8.266;2022-11-04T05:17:28;10.10;99.90
6641;DHT22;3356;49.360;8.266;2022-11-04T05:19:29;10.10;99.90
6641;DHT22;3356;49.360;8.266;2022-11-04T05:21:30;10.00;99.90
6641;DHT22;3356;49.360;8.266;2022-11-04T05:23:32;10.00;99.90
6641;DHT22;3356;49.360;8.266;2022-11-04T05:25:33;10.00;99.90
6641;DHT22;3356;49.360;8.266;2022-11-04T05:27:35;10.00;99.90
6641;DHT22;3356;49.360;8.266;2022-11-04T05:29:36;10.00;99.90
6641;DHT22;3356;49.360;8.266;2022-11-04T05:31:37;10.00;99.90
6641;DHT22;3356;49.360;8.266;2022-11-04T05:33:38;9.90;99.90
6641;DHT22;3356;49.360;8.266;2022-11-04T05:35:39;9.90;99.90
6641;DHT22;3356;49.360;8.266;2022-11-04T05:37:40;9.90;99.90
6641;DHT22;3356;49.360;8.266;2022-11-04T05:39:41;9.90;99.90
6641;DHT22;3356;49.360;8.266;2022-11-04T05:41:42;9.90;99.90
6641;DHT22;3356;49.360;8.266;2022-11-04T05:43:43;9.90;99.90
6641;DHT22;3356;49.360;8.266;2022-11-04T05:45:44;9.80;99.90
6641;DHT22;3356;49.360;8.266;2022-11-04T05:47:46;9.80;99.90
6641;DHT22;3356;49.360;8.266;2022-11-04T05:49:47;9.80;99.90
6641;DHT22;3356;49.360;8.266;2022-11-04T05:51:48;9.80;99.90
6641;DHT22;3356;49.360;8.266;2022-11-04T05:53:49;9.70;99.90
6641;DHT22;3356;49.360;8.266;2022-11-04T05:55:50;9.70;99.90
6641;DHT22;3356;49.360;8.266;2022-11-04T05:57:52;9.70;99.90
6641;DHT22;3356;49.360;8.266;2022-11-04T05:59:53;9.70;99.90
6641;DHT22;3356;49.360;8.266;2022-11-04T06:01:54;9.60;99.90
6641;DHT22;3356;49.360;8.266;2022-11-04T06:03:56;9.60;99.90
6641;DHT22;3356;49.360;8.266;2022-11-04T06:05:58;9.70;99.90
6641;DHT22;3356;49.360;8.266;2022-11-04T06:07:59;9.70;99.90
6641;DHT22;3356;49.360;8.266;2022-11-04T06:10:00;9.60;99.90
6641;DHT22;3356;49.360;8.266;2022-11-04T06:12:01;9.70;99.90
6641;DHT22;3356;49.360;8.266;2022-11-04T06:14:02;9.60;99.90
6641;DHT22;3356;49.360;8.266;2022-11-04T06:16:04;10.60;99.90
6641;DHT22;3356;49.360;8.266;2022-11-04T06:18:05;9.60;99.90
6641;DHT22;3356;49.360;8.266;2022-11-04T06:20:06;9.70;99.90
6641;DHT22;3356;49.360;8.266;2022-11-04T06:22:15;9.60;99.90
6641;DHT22;3356;49.360;8.266;2022-11-04T06:24:17;9.60;99.90
6641;DHT22;3356;49.360;8.266;2022-11-04T06:26:18;9.60;99.90
6641;DHT22;3356;49.360;8.266;2022-11-04T06:28:19;9.60;99.90
6641;DHT22;3356;49.360;8.266;2022-11-04T06:30:20;9.50;99.90
6641;DHT22;3356;49.360;8.266;2022-11-04T06:32:22;9.50;99.90
6641;DHT22;3356;49.360;8.266;2022-11-04T06:34:23;9.50;99.90
6641;DHT22;3356;49.360;8.266;2022-11-04T06:36:24;9.50;99.90
6641;DHT22;3356;49.360;8.266;2022-11-04T06:38:28;9.50;99.90
6641;DHT22;3356;49.360;8.266;2022-11-04T06:40:29;9.50;99.90
6641;DHT22;3356;49.360;8.266;2022-11-04T06:42:30;9.50;99.90
6641;DHT22;3356;49.360;8.266;2022-11-04T06:44:31;9.40;99.90
6641;DHT22;3356;49.360;8.266;2022-11-04T06:46:39;9.40;99.90
6641;DHT22;3356;49.360;8.266;2022-11-04T06:48:40;9.50;99.90
6641;DHT22;3356;49.360;8.266;2022-11-04T06:50:41;9.50;99.90
6641;DHT22;3356;49.360;8.266;2022-11-04T06:52:43;9.50;99.90
6641;DHT22;3356;49.360;8.266;2022-11-04T06:54:44;9.50;99.90
6641;DHT22;3356;49.360;8.266;2022-11-04T06:56:46;9.50;99.90
6641;DHT22;3356;49.360;8.266;2022-11-04T06:58:51;9.50;99.90
6641;DHT22;3356;49.360;8.266;2022-11-04T07:00:52;9.60;99.90
6641;DHT22;3356;49.360;8.266;2022-11-04T07:02:53;9.60;99.90
6641;DHT22;3356;49.360;8.266;2022-11-04T07:04:54;9.60;99.90
6641;DHT22;3356;49.360;8.266;2022-11-04T07:06:55;9.60;99.90
6641;DHT22;3356;49.360;8.266;2022-11-04T07:08:58;9.70;99.90
6641;DHT22;3356;49.360;8.266;2022-11-04T07:11:00;9.70;99.90
6641;DHT22;3356;49.360;8.266;2022-11-04T07:13:01;9.70;99.90
6641;DHT22;3356;49.360;8.266;2022-11-04T07:15:03;9.70;99.90
6641;DHT22;3356;49.360;8.266;2022-11-04T07:17:04;9.70;99.90
6641;DHT22;3356;49.360;8.266;2022-11-04T07:19:05;9.80;99.90
6641;DHT22;3356;49.360;8.266;2022-11-04T07:21:07;9.80;99.90
6641;DHT22;3356;49.360;8.266;2022-11-04T07:23:08;9.80;99.90
6641;DHT22;3356;49.360;8.266;2022-11-04T07:25:09;9.90;99.90
6641;DHT22;3356;49.360;8.266;2022-11-04T07:27:10;9.90;99.90
6641;DHT22;3356;49.360;8.266;2022-11-04T07:29:11;9.90;99.90
6641;DHT22;3356;49.360;8.266;2022-11-04T07:31:13;9.90;99.90
6641;DHT22;3356;49.360;8.266;2022-11-04T07:33:14;10.00;99.90
6641;DHT22;3356;49.360;8.266;2022-11-04T07:35:15;10.00;99.90
6641;DHT22;3356;49.360;8.266;2022-11-04T07:37:16;10.00;99.90
6641;DHT22;3356;49.360;8.266;2022-11-04T07:39:18;10.10;99.90
6641;DHT22;3356;49.360;8.266;2022-11-04T07:41:19;10.10;99.90
6641;DHT22;3356;49.360;8.266;2022-11-04T07:43:20;10.20;99.90
6641;DHT22;3356;49.360;8.266;2022-11-04T07:45:22;10.20;99.90
6641;DHT22;3356;49.360;8.266;2022-11-04T07:47:23;10.30;99.90
6641;DHT22;3356;49.360;8.266;2022-11-04T07:49:24;10.30;99.90
6641;DHT22;3356;49.360;8.266;2022-11-04T07:51:26;10.40;99.90
6641;DHT22;3356;49.360;8.266;2022-11-04T07:53:28;10.40;99.90
6641;DHT22;3356;49.360;8.266;2022-11-04T07:55:29;10.50;99.90
6641;DHT22;3356;49.360;8.266;2022-11-04T07:57:31;10.60;99.90
6641;DHT22;3356;49.360;8.266;2022-11-04T07:59:32;10.60;99.90
6641;DHT22;3356;49.360;8.266;2022-11-04T08:01:33;10.60;99.90
6641;DHT22;3356;49.360;8.266;2022-11-04T08:03:35;10.60;99.90
6641;DHT22;3356;49.360;8.266;2022-11-04T08:05:36;10.60;99.90
6641;DHT22;3356;49.360;8.266;2022-11-04T08:07:38;10.60;99.90
6641;DHT22;3356;49.360;8.266;2022-11-04T08:09:39;10.70;99.90
6641;DHT22;3356;49.360;8.266;2022-11-04T08:11:40;10.60;99.90
6641;DHT22;3356;49.360;8.266;2022-11-04T08:13:41;10.60;99.90
6641;DHT22;3356;49.360;8.266;2022-11-04T08:15:42;10.70;99.90
6641;DHT22;3356;49.360;8.266;2022-11-04T08:17:43;10.70;99.90
6641;DHT22;3356;49.360;8.266;2022-11-04T08:19:44;10.70;99.90
6641;DHT22;3356;49.360;8.266;2022-11-04T08:21:46;10.80;99.90
6641;DHT22;3356;49.360;8.266;2022-11-04T08:23:47;10.90;99.90
6641;DHT22;3356;49.360;8.266;2022-11-04T08:25:48;11.00;99.90
6641;DHT22;3356;49.360;8.266;2022-11-04T08:27:49;11.10;99.90
6641;DHT22;3356;49.360;8.266;2022-11-04T08:29:50;11.10;99.90
6641;DHT22;3356;49.360;8.266;2022-11-04T08:31:51;11.20;99.90
6641;DHT22;3356;49.360;8.266;2022-11-04T08:33:53;11.30;99.90
6641;DHT22;3356;49.360;8.266;2022-11-04T08:35:59;11.30;99.90
6641;DHT22;3356;49.360;8.266;2022-11-04T08:38:00;11.40;99.90
6641;DHT22;3356;49.360;8.266;2022-11-04T08:40:02;11.40;99.90
6641;DHT22;3356;49.360;8.266;2022-11-04T08:42:03;11.50;99.90
6641;DHT22;3356;49.360;8.266;2022-11-04T08:44:04;11.60;99.90
6641;DHT22;3356;49.360;8.266;2022-11-04T08:46:07;11.60;99.90
6641;DHT22;3356;49.360;8.266;2022-11-04T08:48:10;11.50;99.90
6641;DHT22;3356;49.360;8.266;2022-11-04T08:50:11;11.50;99.90
6641;DHT22;3356;49.360;8.266;2022-11-04T08:52:12;11.50;99.90
6641;DHT22;3356;49.360;8.266;2022-11-04T08:54:13;11.50;99.90
6641;DHT22;3356;49.360;8.266;2022-11-04T08:56:20;11.50;99.90
6641;DHT22;3356;49.360;8.266;2022-11-04T08:58:22;11.50;99.90
6641;DHT22;3356;49.360;8.266;2022-11-04T09:00:24;11.60;99.90
6641;DHT22;3356;49.360;8.266;2022-11-04T09:02:25;11.60;99.90
6641;DHT22;3356;49.360;8.266;2022-11-04T09:04:26;11.80;99.90
6641;DHT22;3356;49.360;8.266;2022-11-04T09:06:34;12.00;99.90
6641;DHT22;3356;49.360;8.266;2022-11-04T09:08:36;12.20;99.90
6641;DHT22;3356;49.360;8.266;2022-11-04T09:10:46;12.30;99.90
6641;DHT22;3356;49.360;8.266;2022-11-04T09:12:47;12.40;99.90
6641;DHT22;3356;49.360;8.266;2022-11-04T09:14:48;12.50;99.90
6641;DHT22;3356;49.360;8.266;2022-11-04T09:16:50;12.60;99.90
6641;DHT22;3356;49.360;8.266;2022-11-04T09:18:51;12.60;99.90
6641;DHT22;3356;49.360;8.266;2022-11-04T09:20:52;12.70;99.90
6641;DHT22;3356;49.360;8.266;2022-11-04T09:22:54;12.80;99.90
6641;DHT22;3356;49.360;8.266;2022-11-04T09:24:56;12.60;99.90
6641;DHT22;3356;49.360;8.266;2022-11-04T09:26:57;12.60;99.90
6641;DHT22;3356;49.360;8.266;2022-11-04T09:28:58;12.50;99.90
6641;DHT22;3356;49.360;8.266;2022-11-04T09:31:03;12.50;99.90
6641;DHT22;3356;49.360;8.266;2022-11-04T09:33:05;12.50;99.90
6641;DHT22;3356;49.360;8.266;2022-11-04T09:35:06;12.50;99.90
6641;DHT22;3356;49.360;8.266;2022-11-04T09:37:07;12.50;99.90
6641;DHT22;3356;49.360;8.266;2022-11-04T09:39:09;12.60;99.90
6641;DHT22;3356;49.360;8.266;2022-11-04T09:41:36;12.80;99.90
6641;DHT22;3356;49.360;8.266;2022-11-04T09:46:13;12.80;99.90
6641;DHT22;3356;49.360;8.266;2022-11-04T09:48:53;12.90;99.90
6641;DHT22;3356;49.360;8.266;2022-11-04T09:50:58;12.80;99.90
6641;DHT22;3356;49.360;8.266;2022-11-04T09:53:03;12.90;99.90
6641;DHT22;3356;49.360;8.266;2022-11-04T09:57:16;12.90;99.90
6641;DHT22;3356;49.360;8.266;2022-11-04T09:59:33;12.70;99.90
6641;DHT22;3356;49.360;8.266;2022-11-04T10:01:39;12.70;99.90
6641;DHT22;3356;49.360;8.266;2022-11-04T10:04:01;12.70;99.90
6641;DHT22;3356;49.360;8.266;2022-11-04T10:08:55;12.90;99.90
6641;DHT22;3356;49.360;8.266;2022-11-04T10:20:23;13.10;99.90
6641;DHT22;3356;49.360;8.266;2022-11-04T10:22:46;13.10;99.90
6641;DHT22;3356;49.360;8.266;2022-11-04T10:25:15;13.00;99.90
6641;DHT22;3356;49.360;8.266;2022-11-04T10:27:24;12.90;99.90
6641;DHT22;3356;49.360;8.266;2022-11-04T10:29:46;12.80;99.90
6641;DHT22;3356;49.360;8.266;2022-11-04T10:31:51;12.80;99.90
6641;DHT22;3356;49.360;8.266;2022-11-04T10:33:58;13.00;99.90
6641;DHT22;3356;49.360;8.266;2022-11-04T10:36:08;12.90;99.90
6641;DHT22;3356;49.360;8.266;2022-11-04T10:40:35;13.40;99.90
6641;DHT22;3356;49.360;8.266;2022-11-04T10:42:37;13.50;99.90
6641;DHT22;3356;49.360;8.266;2022-11-04T10:44:39;13.60;99.90
6641;DHT22;3356;49.360;8.266;2022-11-04T10:51:10;13.60;99.90
6641;DHT22;3356;49.360;8.266;2022-11-04T10:53:22;13.60;99.90
6641;DHT22;3356;49.360;8.266;2022-11-04T10:57:57;13.60;99.90
6641;DHT22;3356;49.360;8.266;2022-11-04T11:00:00;13.70;99.90
6641;DHT22;3356;49.360;8.266;2022-11-04T11:02:03;13.90;99.90
6641;DHT22;3356;49.360;8.266;2022-11-04T11:04:06;13.90;99.90
6641;DHT22;3356;49.360;8.266;2022-11-04T11:08:29;14.10;99.90
6641;DHT22;3356;49.360;8.266;2022-11-04T11:10:32;14.00;99.90
6641;DHT22;3356;49.360;8.266;2022-11-04T11:12:34;13.90;99.90
6641;DHT22;3356;49.360;8.266;2022-11-04T11:14:46;13.80;99.90
6641;DHT22;3356;49.360;8.266;2022-11-04T11:16:48;13.80;99.90
6641;DHT22;3356;49.360;8.266;2022-11-04T11:19:14;13.90;99.90
6641;DHT22;3356;49.360;8.266;2022-11-04T11:21:17;13.90;99.90
6641;DHT22;3356;49.360;8.266;2022-11-04T11:23:42;13.90;99.90
6641;DHT22;3356;49.360;8.266;2022-11-04T11:25:48;13.90;99.90
6641;DHT22;3356;49.360;8.266;2022-11-04T11:30:05;13.90;99.90
6641;DHT22;3356;49.360;8.266;2022-11-04T11:32:39;13.80;99.90
6641;DHT22;3356;49.360;8.266;2022-11-04T11:34:44;14.00;99.90
6641;DHT22;3356;49.360;8.266;2022-11-04T11:36:48;13.90;99.90
6641;DHT22;3356;49.360;8.266;2022-11-04T11:38:54;13.80;99.90
6641;DHT22;3356;49.360;8.266;2022-11-04T11:43:22;14.10;99.90
6641;DHT22;3356;49.360;8.266;2022-11-04T11:45:25;14.10;99.90
6641;DHT22;3356;49.360;8.266;2022-11-04T11:49:32;14.00;99.90
6641;DHT22;3356;49.360;8.266;2022-11-04T11:51:36;13.90;99.90
6641;DHT22;3356;49.360;8.266;2022-11-04T11:53:38;14.10;99.90
6641;DHT22;3356;49.360;8.266;2022-11-04T11:56:12;14.10;99.90
6641;DHT22;3356;49.360;8.266;2022-11-04T11:58:38;14.20;99.90
6641;DHT22;3356;49.360;8.266;2022-11-04T12:00:47;14.20;99.90
6641;DHT22;3356;49.360;8.266;2022-11-04T12:05:01;14.10;99.90
6641;DHT22;3356;49.360;8.266;2022-11-04T12:07:35;14.10;99.90
6641;DHT22;3356;49.360;8.266;2022-11-04T12:09:54;14.10;99.90
6641;DHT22;3356;49.360;8.266;2022-11-04T12:21:13;13.90;99.90
6641;DHT22;3356;49.360;8.266;2022-11-04T12:23:47;13.90;99.90
6641;DHT22;3356;49.360;8.266;2022-11-04T12:30:23;13.80;99.90
6641;DHT22;3356;49.360;8.266;2022-11-04T12:37:28;14.00;99.90
6641;DHT22;3356;49.360;8.266;2022-11-04T12:51:36;13.90;99.90
6641;DHT22;3356;49.360;8.266;2022-11-04T12:53:52;13.90;99.90
6641;DHT22;3356;49.360;8.266;2022-11-04T13:00:19;14.00;99.90
6641;DHT22;3356;49.360;8.266;2022-11-04T13:02:39;14.10;99.90
6641;DHT22;3356;49.360;8.266;2022-11-04T13:06:59;14.30;99.90
6641;DHT22;3356;49.360;8.266;2022-11-04T13:09:05;14.10;99.90
6641;DHT22;3356;49.360;8.266;2022-11-04T13:13:31;14.20;99.90
6641;DHT22;3356;49.360;8.266;2022-11-04T13:15:45;14.20;99.90
6641;DHT22;3356;49.360;8.266;2022-11-04T13:18:00;14.30;99.90
6641;DHT22;3356;49.360;8.266;2022-11-04T13:20:24;14.30;99.90
6641;DHT22;3356;49.360;8.266;2022-11-04T13:22:30;14.30;99.90
6641;DHT22;3356;49.360;8.266;2022-11-04T13:24:34;14.30;99.90
6641;DHT22;3356;49.360;8.266;2022-11-04T13:26:37;14.20;99.90
6641;DHT22;3356;49.360;8.266;2022-11-04T13:28:40;14.10;99.90
6641;DHT22;3356;49.360;8.266;2022-11-04T13:38:07;14.10;99.90
6641;DHT22;3356;49.360;8.266;2022-11-04T13:40:25;14.10;99.90
6641;DHT22;3356;49.360;8.266;2022-11-04T13:45:17;14.20;99.90
6641;DHT22;3356;49.360;8.266;2022-11-04T13:47:23;14.10;99.90
6641;DHT22;3356;49.360;8.266;2022-11-04T13:49:31;14.20;99.90
6641;DHT22;3356;49.360;8.266;2022-11-04T13:53:54;14.30;99.90
6641;DHT22;3356;49.360;8.266;2022-11-04T13:55:57;14.30;99.90
6641;DHT22;3356;49.360;8.266;2022-11-04T13:58:03;14.20;99.90
6641;DHT22;3356;49.360;8.266;2022-11-04T14:04:29;14.00;99.90
6641;DHT22;3356;49.360;8.266;2022-11-04T14:06:53;14.00;99.90
6641;DHT22;3356;49.360;8.266;2022-11-04T14:11:29;13.90;99.90
6641;DHT22;3356;49.360;8.266;2022-11-04T14:18:00;14.00;99.90
6641;DHT22;3356;49.360;8.266;2022-11-04T14:22:10;13.90;99.90
6641;DHT22;3356;49.360;8.266;2022-11-04T14:24:13;13.90;99.90
6641;DHT22;3356;49.360;8.266;2022-11-04T14:26:16;13.70;99.90
6641;DHT22;3356;49.360;8.266;2022-11-04T14:28:25;13.80;99.90
6641;DHT22;3356;49.360;8.266;2022-11-04T14:32:47;13.80;99.90
6641;DHT22;3356;49.360;8.266;2022-11-04T14:35:04;13.90;99.90
6641;DHT22;3356;49.360;8.266;2022-11-04T14:37:20;13.60;99.90
6641;DHT22;3356;49.360;8.266;2022-11-04T14:39:39;13.40;99.90
6641;DHT22;3356;49.360;8.266;2022-11-04T14:41:57;13.40;99.90
6641;DHT22;3356;49.360;8.266;2022-11-04T14:44:01;13.40;99.90
6641;DHT22;3356;49.360;8.266;2022-11-04T14:46:06;13.40;99.90
6641;DHT22;3356;49.360;8.266;2022-11-04T14:48:14;13.30;99.90
6641;DHT22;3356;49.360;8.266;2022-11-04T14:50:24;13.20;99.90
6641;DHT22;3356;49.360;8.266;2022-11-04T14:52:30;13.20;99.90
6641;DHT22;3356;49.360;8.266;2022-11-04T14:54:33;13.20;99.90
6641;DHT22;3356;49.360;8.266;2022-11-04T14:56:36;13.20;99.90
6641;DHT22;3356;49.360;8.266;2022-11-04T14:58:37;13.10;99.90
6641;DHT22;3356;49.360;8.266;2022-11-04T15:05:22;13.10;99.90
6641;DHT22;3356;49.360;8.266;2022-11-04T15:07:38;13.10;99.90
6641;DHT22;3356;49.360;8.266;2022-11-04T15:09:47;13.10;99.90
6641;DHT22;3356;49.360;8.266;2022-11-04T15:11:48;13.10;99.90
6641;DHT22;3356;49.360;8.266;2022-11-04T15:14:21;13.00;99.90
6641;DHT22;3356;49.360;8.266;2022-11-04T15:16:25;12.60;99.90
6641;DHT22;3356;49.360;8.266;2022-11-04T15:18:27;12.60;99.90
6641;DHT22;3356;49.360;8.266;2022-11-04T15:20:30;12.70;99.90
6641;DHT22;3356;49.360;8.266;2022-11-04T15:22:33;12.70;99.90
6641;DHT22;3356;49.360;8.266;2022-11-04T15:24:34;12.60;99.90
6641;DHT22;3356;49.360;8.266;2022-11-04T15:26:36;12.70;99.90
6641;DHT22;3356;49.360;8.266;2022-11-04T15:28:46;12.60;99.90
6641;DHT22;3356;49.360;8.266;2022-11-04T15:31:05;12.50;99.90
6641;DHT22;3356;49.360;8.266;2022-11-04T15:33:14;12.40;99.90
6641;DHT22;3356;49.360;8.266;2022-11-04T15:35:17;12.40;99.90
6641;DHT22;3356;49.360;8.266;2022-11-04T15:37:20;12.40;99.90
6641;DHT22;3356;49.360;8.266;2022-11-04T15:39:38;12.40;99.90
6641;DHT22;3356;49.360;8.266;2022-11-04T15:41:41;12.40;99.90
6641;DHT22;3356;49.360;8.266;2022-11-04T15:44:02;12.50;99.90
6641;DHT22;3356;49.360;8.266;2022-11-04T15:46:03;12.40;99.90
6641;DHT22;3356;49.360;8.266;2022-11-04T15:48:31;12.30;99.90
6641;DHT22;3356;49.360;8.266;2022-11-04T15:50:38;12.30;99.90
6641;DHT22;3356;49.360;8.266;2022-11-04T15:52:47;12.30;99.90
6641;DHT22;3356;49.360;8.266;2022-11-04T15:54:52;12.40;99.90
6641;DHT22;3356;49.360;8.266;2022-11-04T15:56:55;12.30;99.90
6641;DHT22;3356;49.360;8.266;2022-11-04T15:58:59;12.30;99.90
6641;DHT22;3356;49.360;8.266;2022-11-04T16:01:01;12.40;99.90
6641;DHT22;3356;49.360;8.266;2022-11-04T16:03:02;12.40;99.90
6641;DHT22;3356;49.360;8.266;2022-11-04T16:07:22;12.30;99.90
6641;DHT22;3356;49.360;8.266;2022-11-04T16:09:27;12.30;99.90